Latest Weather Observations for Aireys Inlet

IDV60801

Issued at 12:35 am EDT Sunday 2 November 2014 (issued every 30 minutes, with the page automatically refreshed every 10 minutes)

About weather observations | Map of weather stations | Latest weather observations for VIC | Other Formats
Station Details ID: 090180 Name: AIREYS INLET Lat: -38.46 Lon: 144.09 Height: 95.0 m
Data from the previous 72 hours. | See also: Recent months at Aireys Inlet
Date/Time
EDT
Temp
°C
App
Temp
°C
Dew
Point
Rel
Hum
%
Delta-T
°C
Wind Press
QNH
hPa
Press
MSL
hPa
Rain
since 9 am
mm
Dir
 
Spd
km/h
Gust
km/h
Spd
kts
Gust
kts
02/12:30am 6.8 1.7 4.3 84 1.1 WNW 20 28 11 15 - - 1.0
02/12:00am 6.9 2.1 4.6 85 1.0 WNW 19 26 10 14 - - 1.0
 
Date/Time
EDT
Temp
°C
App
Temp
°C
Dew
Point
Rel
Hum
%
Delta-T
°C
Wind Press
QNH
hPa
Press
MSL
hPa
Rain
since 9 am
mm
Dir
 
Spd
km/h
Gust
km/h
Spd
kts
Gust
kts
01/11:30pm 7.4 2.0 4.7 83 1.2 W 22 32 12 17 - - 1.0
01/11:00pm 7.4 2.5 4.2 80 1.4 W 19 33 10 18 - - 1.0
01/10:32pm 7.7 1.0 3.9 77 1.6 W 28 48 15 26 - - 1.0
01/10:30pm 7.7 1.5 4.1 78 1.6 W 26 41 14 22 - - 1.0
01/10:00pm 7.6 2.6 4.4 80 1.4 W 20 32 11 17 - - 1.0
01/09:30pm 8.1 2.4 4.7 79 1.5 W 24 46 13 25 - - 1.0
01/09:00pm 7.8 3.0 4.7 81 1.4 WNW 19 24 10 13 - - 1.0
01/08:30pm 8.3 2.8 3.8 73 2.0 W 22 39 12 21 - - 1.0
01/08:00pm 8.3 3.1 3.8 73 2.0 W 20 35 11 19 - - 1.0
01/07:30pm 8.7 2.2 4.5 75 1.9 W 28 46 15 25 - - 1.0
01/07:05pm 8.9 1.6 4.7 75 1.9 W 32 52 17 28 - - 1.0
01/07:00pm 8.9 2.4 4.7 75 1.9 W 28 43 15 23 - - 1.0
01/06:39pm 9.6 2.2 4.8 72 2.2 W 33 52 18 28 - - 1.0
01/06:30pm 9.5 1.6 4.5 71 2.2 W 35 54 19 29 - - 1.0
01/06:18pm 9.8 3.1 3.8 66 2.6 W 28 50 15 27 - - 0.8
01/06:00pm 11.1 5.7 4.3 63 3.1 W 22 35 12 19 - - 0.8
01/05:30pm 9.0 0.3 5.9 81 1.4 WSW 41 65 22 35 - - 0.8
01/05:00pm 9.2 0.0 5.6 78 1.6 SW 43 67 23 36 - - 0.6
01/04:57pm 9.2 -1.0 5.2 76 1.8 SW 48 67 26 36 - - 0.6
01/04:55pm 9.8 -1.5 5.6 75 1.9 SW 54 67 29 36 - - 0.6
01/04:33pm 12.2 5.6 4.4 59 3.6 WSW 28 46 15 25 - - 0.6
01/04:30pm 13.2 6.8 5.4 59 3.7 WSW 28 41 15 22 - - 0.6
01/04:03pm 10.0 -1.1 4.4 68 2.5 W 52 74 28 40 - - 0.4
01/04:02pm 10.9 -1.0 4.1 63 3.0 W 56 74 30 40 - - 0.4
01/04:00pm 12.2 4.5 3.2 54 4.0 W 33 69 18 37 - - 0.4
01/03:30pm 13.0 5.2 3.1 51 4.4 WSW 33 56 18 30 - - 0.4
01/03:27pm 13.5 6.2 4.6 55 4.1 WSW 32 52 17 28 - - 0.4
01/03:09pm 11.2 2.8 5.5 68 2.6 WSW 39 50 21 27 - - 0.4
01/03:06pm 10.3 -2.0 5.3 71 2.3 WSW 59 82 32 44 - - 0.4
01/03:04pm 11.0 -2.4 5.5 69 2.5 WSW 65 82 35 44 - - 0.4
01/03:02pm 12.8 6.5 5.7 62 3.3 WSW 28 61 15 33 - - 0.4
01/03:00pm 13.6 7.1 4.5 54 4.2 WSW 28 43 15 23 - - 0.4
01/02:30pm 14.5 8.7 6.3 58 4.0 WSW 26 43 14 23 - - 0.4
01/02:00pm 10.6 4.5 4.7 67 2.7 W 26 41 14 22 - - 0.4
01/01:52pm 10.4 3.2 5.2 70 2.4 W 32 52 17 28 - - 0.4
01/01:30pm 13.1 7.2 6.0 62 3.4 WSW 26 41 14 22 - - 0.4
01/01:00pm 12.8 5.3 4.5 57 3.8 WSW 33 63 18 34 - - 0.4
01/12:30pm 15.3 7.3 5.8 53 4.6 WSW 37 57 20 31 - - 0.4
01/12:00pm 14.7 6.9 5.0 52 4.6 W 35 61 19 33 - - 0.4
01/11:30am 13.8 7.3 6.7 62 3.4 W 30 52 16 28 - - 0.4
01/11:03am 12.4 5.9 6.7 68 2.7 W 30 50 16 27 - - 0.4
01/11:00am 12.5 6.7 6.1 65 3.0 W 26 48 14 26 - - 0.4
01/10:48am 12.9 6.8 6.5 65 3.1 WSW 28 48 15 26 - - 0.4
01/10:30am 13.4 8.6 7.4 67 2.9 W 22 41 12 22 - - 0.4
01/10:22am 12.9 8.1 7.4 69 2.7 SW 22 30 12 16 - - 0.4
01/10:00am 10.9 3.3 7.6 80 1.6 W 37 50 20 27 - - 0.4
01/09:48am 12.9 6.9 6.9 67 2.9 W 28 52 15 28 - - 0.0
01/09:30am 13.7 8.9 7.2 65 3.2 W 22 37 12 20 - - 0.0
01/09:00am 12.3 8.8 7.2 71 2.5 WSW 15 22 8 12 - - 2.4
01/08:30am 11.5 7.4 7.8 78 1.8 WSW 19 28 10 15 - - 2.4
01/08:04am 11.4 5.7 8.4 82 1.5 WSW 28 46 15 25 - - 2.4
01/08:00am 11.4 4.8 8.6 83 1.4 W 33 46 18 25 - - 2.4
01/07:58am 11.3 3.9 8.3 82 1.5 W 37 46 20 25 - - 2.4
01/07:30am 12.1 8.4 11.6 97 0.3 SW 22 33 12 18 - - 2.4
01/07:00am 12.4 10.1 10.5 88 1.0 WSW 13 20 7 11 - - 2.0
01/06:30am 12.5 9.9 10.6 88 1.0 WSW 15 24 8 13 - - 2.0
01/06:00am 12.8 10.8 11.5 92 0.7 W 13 30 7 16 - - 2.0
01/05:30am 13.0 11.5 11.9 93 0.6 WNW 11 20 6 11 - - 2.0
01/05:00am 12.9 12.3 12.3 96 0.3 WSW 7 17 4 9 - - 2.0
01/04:30am 12.8 11.7 12.0 95 0.4 W 9 17 5 9 - - 2.0
01/04:00am 13.0 10.4 11.9 93 0.6 WNW 17 28 9 15 - - 1.2
01/03:30am 13.9 12.2 11.1 83 1.5 WNW 11 24 6 13 - - 0.0
01/03:00am 14.9 13.7 10.3 74 2.4 W 7 17 4 9 - - 0.0
01/02:30am 15.5 13.0 9.6 68 3.1 W 13 22 7 12 - - 0.0
01/02:00am 16.5 13.5 9.4 63 3.7 W 15 22 8 12 - - 0.0
01/01:30am 16.6 13.3 9.5 63 3.7 W 17 26 9 14 - - 0.0
01/01:00am 16.8 14.2 9.5 62 3.8 W 13 24 7 13 - - 0.0
01/12:30am 17.3 10.9 9.2 59 4.2 W 33 50 18 27 - - 0.0
01/12:22am 17.7 12.2 9.3 58 4.4 W 28 50 15 27 - - 0.0
01/12:00am 17.4 14.9 11.0 66 3.5 WSW 15 26 8 14 - - 0.0
 
Date/Time
EDT
Temp
°C
App
Temp
°C
Dew
Point
Rel
Hum
%
Delta-T
°C
Wind Press
QNH
hPa
Press
MSL
hPa
Rain
since 9 am
mm
Dir
 
Spd
km/h
Gust
km/h
Spd
kts
Gust
kts
31/11:30pm 20.1 17.3 8.4 47 6.1 SW 13 24 7 13 - - 0.0
31/11:00pm 17.1 13.7 12.4 74 2.6 WSW 22 33 12 18 - - 0.0
31/10:30pm 18.1 14.7 11.2 64 3.8 SW 20 28 11 15 - - 0.0
31/10:00pm 18.2 17.3 11.3 64 3.8 NNW 7 17 4 9 - - 0.0
31/09:30pm 18.8 17.5 10.1 57 4.7 SSW 7 15 4 8 - - 0.0
31/09:00pm 20.6 16.3 9.2 48 6.1 SW 22 37 12 20 - - 0.0
31/08:56pm 21.1 16.3 8.7 45 6.6 SW 24 37 13 20 - - 0.0
31/08:30pm 26.1 23.8 5.7 27 10.5 N 7 15 4 8 - - 0.0
31/08:00pm 26.4 23.7 5.4 26 10.8 N 9 13 5 7 - - 0.0
31/07:30pm 28.7 25.0 4.2 21 12.5 N 13 20 7 11 - - 0.0
31/07:00pm 30.1 26.5 3.2 18 13.6 N 11 19 6 10 - - 0.0
31/06:30pm 30.7 27.1 2.9 17 14.1 NW 11 19 6 10 - - 0.0
31/06:00pm 30.9 25.5 1.3 15 14.6 WNW 19 32 10 17 - - 0.0
31/05:36pm 31.9 24.8 1.1 14 15.2 NW 28 46 15 25 - - 0.0
31/05:30pm 31.9 24.8 1.1 14 15.2 NW 28 44 15 24 - - 0.0
31/05:10pm 32.3 25.1 0.4 13 15.6 NW 28 52 15 28 - - 0.0
31/05:00pm 32.4 25.2 0.5 13 15.7 NW 28 46 15 25 - - 0.0
31/04:37pm 32.1 23.7 1.3 14 15.3 NNW 35 56 19 30 - - 0.0
31/04:30pm 31.5 22.6 0.8 14 15.1 NW 37 56 20 30 - - 0.0
31/04:24pm 31.9 24.5 2.1 15 15.0 NW 30 50 16 27 - - 0.0
31/04:00pm 32.0 25.6 3.1 16 14.8 NW 26 46 14 25 - - 0.0
31/03:30pm 31.9 24.7 3.0 16 14.8 NNW 30 54 16 29 - - 0.0
31/03:24pm 30.8 23.1 2.1 16 14.3 NW 32 54 17 29 - - 0.0
31/03:22pm 31.6 23.0 2.7 16 14.7 NW 37 52 20 28 - - 0.0
31/03:21pm 31.8 25.1 3.8 17 14.5 NNW 28 52 15 28 - - 0.0
31/03:00pm 30.2 22.1 3.3 18 13.7 NW 35 48 19 26 - - 0.0
31/02:55pm 30.2 21.7 3.3 18 13.7 NW 37 48 20 26 - - 0.0
31/02:35pm 29.9 23.6 5.9 22 12.7 NNW 28 48 15 26 - - 0.0
31/02:30pm 29.3 22.0 5.4 22 12.5 N 33 52 18 28 - - 0.0
31/02:00pm 29.5 21.5 5.6 22 12.6 NNW 37 59 20 32 - - 0.0
31/01:30pm 29.6 22.9 5.6 22 12.6 NNW 30 54 16 29 - - 0.0
31/01:23pm 29.5 23.4 6.8 24 12.2 NNW 28 46 15 25 - - 0.0
31/01:00pm 28.3 24.3 10.5 33 10.1 N 22 39 12 21 - - 0.0
31/12:30pm 23.9 20.7 11.3 45 7.1 N 19 37 10 20 - - 0.0
31/12:00pm 21.8 18.4 10.6 49 6.2 N 19 33 10 18 - - 0.0
31/11:30am 20.7 18.3 10.2 51 5.7 N 13 24 7 13 - - 0.0
31/11:00am 19.6 18.6 10.9 57 4.8 N 7 15 4 8 - - 0.0
31/10:30am 16.8 15.5 11.3 70 3.0 NE 9 17 5 9 - - 0.0
31/10:00am 15.6 13.1 11.2 75 2.4 NNE 15 20 8 11 - - 0.0
31/09:30am 14.5 12.7 10.7 78 2.0 NNE 11 17 6 9 - - 0.0
31/09:00am 14.2 13.2 11.0 81 1.7 N 7 20 4 11 - - 0.0
31/08:30am 13.4 10.4 10.6 83 1.5 N 17 24 9 13 - - 0.0
31/08:00am 12.8 9.3 10.3 85 1.3 N 19 30 10 16 - - 0.0
31/07:30am 12.2 9.0 10.1 87 1.1 N 17 28 9 15 - - 0.0
31/07:00am 11.8 8.4 10.4 91 0.7 N 19 28 10 15 - - 0.0
31/06:30am 11.0 8.4 10.7 98 0.2 N 15 22 8 12 - - 0.0
31/06:00am 10.7 9.1 10.1 96 0.3 N 9 13 5 7 - - 0.0
31/05:30am 11.0 10.1 10.7 98 0.2 N 6 9 3 5 - - 0.0
31/05:00am 10.5 8.8 10.0 97 0.3 NNE 9 11 5 6 - - 0.0
31/04:30am 11.2 9.7 10.6 96 0.3 N 9 9 5 5 - - 0.0
31/04:00am 10.9 9.7 10.4 97 0.3 N 7 9 4 5 - - 0.0
31/03:30am 10.8 8.8 10.3 97 0.3 N 11 15 6 8 - - 0.0
31/03:00am 10.8 9.1 10.0 95 0.4 N 9 13 5 7 - - 0.0
31/02:30am 11.1 9.1 10.0 93 0.6 N 11 15 6 8 - - 0.0
31/02:00am 10.7 8.5 9.3 91 0.7 NNW 11 13 6 7 - - 0.0
31/01:30am 11.3 9.4 9.0 86 1.2 WNW 9 11 5 6 - - 0.0
31/01:00am 11.5 8.9 9.4 87 1.1 NW 13 17 7 9 - - 0.0
31/12:30am 10.4 7.0 9.3 93 0.6 NW 17 20 9 11 - - 0.0
31/12:00am 11.2 9.2 10.1 93 0.6 NW 11 13 6 7 - - 0.0
 
Date/Time
EDT
Temp
°C
App
Temp
°C
Dew
Point
Rel
Hum
%
Delta-T
°C
Wind Press
QNH
hPa
Press
MSL
hPa
Rain
since 9 am
mm
Dir
 
Spd
km/h
Gust
km/h
Spd
kts
Gust
kts
30/11:30pm 11.4 9.1 10.3 93 0.6 NNW 13 17 7 9 - - 0.0
30/11:00pm 10.9 8.1 10.1 95 0.4 NNW 15 19 8 10 - - 0.0
30/10:30pm 11.1 9.4 9.9 92 0.6 NNW 9 11 5 6 - - 0.0
30/10:00pm 11.8 11.2 10.4 91 0.7 NNW 4 7 2 4 - - 0.0
30/09:30pm 12.4 12.2 10.6 89 0.9 W 2 4 1 2 - - 0.0
30/09:00pm 13.0 12.0 10.9 87 1.1 W 7 15 4 8 - - 0.0
30/08:30pm 13.3 11.5 10.8 85 1.3 SW 11 17 6 9 - - 0.0
30/08:00pm 13.7 11.9 10.7 82 1.6 SW 11 19 6 10 - - 0.0
30/07:30pm 15.2 12.9 10.6 74 2.4 SSW 13 20 7 11 - - 0.0
30/07:00pm 16.4 14.6 10.9 70 3.0 SSW 11 17 6 9 - - 0.0
30/06:30pm 17.2 15.6 11.5 69 3.1 SSW 11 20 6 11 - - 0.0
30/06:00pm 17.4 15.8 11.7 69 3.1 SSW 11 19 6 10 - - 0.0
30/05:30pm 17.0 15.4 11.5 70 3.0 S 11 17 6 9 - - 0.0
30/05:00pm 18.3 16.7 11.4 64 3.8 S 11 19 6 10 - - 0.0
30/04:30pm 17.1 15.7 10.9 67 3.3 S 9 15 5 8 - - 0.0
30/04:00pm 17.3 15.6 11.3 68 3.3 S 11 19 6 10 - - 0.0
30/03:30pm 17.9 15.6 10.3 61 4.1 S 13 22 7 12 - - 0.0
30/03:00pm 18.4 17.0 9.7 57 4.6 SSE 7 17 4 9 - - 0.0
30/02:30pm 19.0 15.0 8.9 52 5.3 W 20 28 11 15 - - 0.0
30/02:00pm 19.6 18.3 9.8 53 5.2 SW 7 17 4 9 - - 0.0
30/01:30pm 18.0 16.2 9.4 57 4.5 SSW 9 17 5 9 - - 0.0
30/01:00pm 17.6 15.7 9.2 58 4.4 W 9 20 5 11 - - 0.0
30/12:30pm 16.1 12.2 8.6 61 3.8 W 19 26 10 14 - - 0.0
30/12:00pm 15.4 12.2 8.4 63 3.6 W 15 30 8 16 - - 0.0
30/11:30am 15.8 13.1 9.0 64 3.5 WNW 13 19 7 10 - - 0.0
30/11:00am 14.6 12.1 8.3 66 3.2 W 11 24 6 13 - - 0.0
30/10:30am 14.1 10.9 8.3 68 2.9 WNW 15 24 8 13 - - 0.0
30/10:00am 14.3 11.9 8.7 69 2.8 W 11 20 6 11 - - 0.0
30/09:30am 13.7 11.3 8.7 72 2.5 WNW 11 20 6 11 - - 0.0
30/09:00am 13.4 11.1 9.1 75 2.2 WNW 11 19 6 10 - - 0.0
30/08:30am 12.8 10.9 9.1 78 1.9 WNW 9 15 5 8 - - 0.0
30/08:00am 12.1 10.5 8.9 81 1.6 NW 7 15 4 8 - - 0.0
30/07:30am 11.7 9.8 9.1 84 1.3 NW 9 15 5 8 - - 0.0
30/07:00am 11.2 8.9 9.1 87 1.1 NW 11 13 6 7 - - 0.0
30/06:30am 11.3 9.5 9.6 89 0.9 NW 9 15 5 8 - - 0.0
30/06:00am 11.3 9.9 9.7 90 0.8 NNW 7 13 4 7 - - 0.0
30/05:30am 11.5 9.4 9.9 90 0.8 NW 11 15 6 8 - - 0.0
30/05:00am 11.6 9.2 9.9 89 0.9 NW 13 17 7 9 - - 0.0
30/04:30am 11.8 9.6 9.5 86 1.2 NW 11 15 6 8 - - 0.0
30/04:00am 12.0 9.8 9.4 84 1.3 WNW 11 17 6 9 - - 0.0
30/03:30am 11.8 8.8 9.4 85 1.2 WNW 15 20 8 11 - - 0.0
30/03:00am 11.6 10.3 9.9 89 0.9 NNW 7 11 4 6 - - 0.0
30/02:30am 11.6 10.3 9.9 89 0.9 N 7 11 4 6 - - 0.0
30/02:00am 11.7 10.3 9.6 87 1.1 NNW 7 9 4 5 - - 0.0
30/01:30am 11.7 9.2 9.6 87 1.1 NNW 13 17 7 9 - - 0.0
30/01:00am 12.1 10.0 9.7 85 1.2 NW 11 15 6 8 - - 0.0

Other Formats:

Comma delimited format used in spreadsheet applications
http://www.bom.gov.au/fwo/IDV60801/IDV60801.94846.axf

JavaScript Object Notation format (JSON) in row-major order
http://www.bom.gov.au/fwo/IDV60801/IDV60801.94846.json